Latest Weather Observations for Townsville Air Weapons Range (Defence)

IDQ60801

Issued at 7:02 pm EST Thursday 19 October 2017 (issued every 30 minutes, with the page automatically refreshed every 10 minutes)

About weather observations | Map of weather stations | Latest weather observations for QLD | Other Formats
Station Details ID: 032196 Name: TOWNSVILLE- AIR WEAPONS RANGE (DEFENCE) Lat: -19.30 Lon: 146.24 Height: 384.0 m
Data from the previous 72 hours. | See also: Recent months for locations in Queensland
Date/Time
EST
Temp
°C
App
Temp
°C
Dew
Point
°C
Rel
Hum
%
Delta-T
°C
Wind Press
QNH
hPa
Press
MSL
hPa
Rain since
9am
mm
Dir  Spd
km/h
Gust
km/h
Spd
kts
Gust
kts
19/07:00pm 21.0 24.9 20.3 96 0.5 CALM 0 0 0 0 - - 40.2
19/06:30pm 20.9 24.7 20.1 95 0.5 CALM 0 0 0 0 - - 40.2
19/06:00pm 21.0 24.8 20.2 95 0.5 CALM 0 0 0 0 - - 40.2
19/05:30pm 20.9 24.2 19.9 94 0.6 W 2 4 1 2 - - 40.2
19/05:00pm 20.9 24.5 19.7 93 0.8 CALM 0 0 0 0 - - 40.2
19/04:30pm 21.0 23.5 19.8 93 0.8 NNW 6 7 3 4 - - 40.2
19/04:00pm 21.4 23.2 20.4 94 0.7 NE 11 17 6 9 - - 39.8
19/03:30pm 22.4 22.9 20.1 87 1.5 ENE 17 22 9 12 - - 39.8
19/03:00pm 22.1 23.2 20.4 90 1.1 E 15 22 8 12 - - 39.8
19/02:30pm 21.1 22.9 19.6 91 1.0 ESE 9 13 5 7 - - 39.8
19/02:00pm 20.9 23.1 20.4 97 0.3 E 9 13 5 7 - - 39.8
19/01:30pm 19.7 22.4 19.4 98 0.2 S 4 6 2 3 - - 39.6
19/01:00pm 19.2 21.7 19.0 99 0.1 SSE 4 6 2 3 - - 37.4
19/12:30pm 18.7 21.3 18.5 99 0.1 W 2 6 1 3 - - 36.6
19/12:00pm 18.4 20.2 18.2 99 0.1 W 6 7 3 4 - - 25.8
19/11:30am 18.4 20.5 18.1 98 0.2 SSW 4 7 2 4 - - 19.8
19/11:00am 18.7 19.0 18.0 96 0.4 WNW 13 20 7 11 - - 9.0
19/10:30am 19.5 18.8 18.2 92 0.8 WNW 19 26 10 14 - - 3.4
19/10:00am 23.1 24.7 21.4 90 1.1 ENE 15 26 8 14 - - 1.0
19/09:30am 22.4 22.7 20.7 90 1.1 E 20 33 11 18 - - 0.4
19/09:00am 22.5 23.5 21.1 92 0.9 ENE 17 28 9 15 - - 50.6
19/08:30am 21.6 22.0 20.9 96 0.5 E 20 33 11 18 - - 50.6
19/08:00am 21.6 23.3 20.9 96 0.5 E 13 22 7 12 - - 41.4
19/07:30am 22.4 23.3 20.9 91 1.0 ESE 17 24 9 13 - - 38.8
19/07:00am 22.1 24.2 20.9 93 0.8 ENE 11 19 6 10 - - 38.8
19/06:30am 21.4 24.4 20.9 97 0.3 ESE 6 9 3 5 - - 38.8
19/06:00am 21.1 23.0 20.6 97 0.3 E 11 19 6 10 - - 38.4
19/05:30am 20.6 23.1 20.3 98 0.2 ENE 7 11 4 6 - - 38.0
19/05:00am 20.5 23.1 20.0 97 0.3 NE 6 9 3 5 - - 33.2
19/04:30am 20.8 23.2 20.0 95 0.5 N 7 9 4 5 - - 24.4
19/04:00am 20.4 23.1 20.2 99 0.1 ENE 6 13 3 7 - - 23.6
19/03:30am 20.1 23.0 19.9 99 0.1 ENE 4 15 2 8 - - 23.4
19/03:00am 19.8 22.7 19.8 100 0.0 W 4 6 2 3 - - 23.4
19/02:30am 19.6 22.0 19.6 100 0.0 WNW 6 7 3 4 - - 22.6
19/02:00am 19.9 22.1 19.7 99 0.1 W 7 9 4 5 - - 16.0
19/01:30am 19.9 22.1 19.7 99 0.1 WSW 7 9 4 5 - - 14.6
19/01:00am 19.8 21.6 19.6 99 0.1 W 9 11 5 6 - - 14.4
19/12:30am 20.1 23.0 19.9 99 0.1 WSW 4 6 2 3 - - 14.4
19/12:00am 20.1 23.3 19.8 98 0.2 WSW 2 6 1 3 - - 14.2
 
Date/Time
EST
Temp
°C
App
Temp
°C
Dew
Point
°C
Rel
Hum
%
Delta-T
°C
Wind Press
QNH
hPa
Press
MSL
hPa
Rain since
9am
mm
Dir  Spd
km/h
Gust
km/h
Spd
kts
Gust
kts
18/11:30pm 20.1 22.9 19.6 97 0.3 ESE 4 6 2 3 - - 13.0
18/11:00pm 20.4 21.4 19.4 94 0.6 E 13 19 7 10 - - 12.4
18/10:30pm 20.5 22.3 19.5 94 0.6 E 9 13 5 7 - - 11.8
18/10:00pm 20.4 22.0 19.1 92 0.8 ENE 9 15 5 8 - - 11.6
18/09:30pm 20.4 22.6 19.6 95 0.5 ENE 7 9 4 5 - - 11.6
18/09:00pm 20.2 22.4 19.2 94 0.6 E 6 9 3 5 - - 11.6
18/08:30pm 20.2 22.3 19.4 95 0.5 E 7 13 4 7 - - 11.6
18/08:00pm 20.1 22.4 19.8 98 0.2 ENE 7 7 4 4 - - 11.4
18/07:30pm 19.9 21.6 19.4 97 0.3 E 9 13 5 7 - - 11.0
18/07:00pm 20.3 22.0 19.3 94 0.6 E 9 11 5 6 - - 10.0
18/06:30pm 20.8 22.5 19.3 91 1.0 E 9 11 5 6 - - 9.0
18/06:00pm 20.8 23.3 19.8 94 0.6 E 6 7 3 4 - - 9.0
18/05:30pm 20.9 23.4 19.9 94 0.6 ENE 6 7 3 4 - - 8.8
18/05:00pm 20.6 22.4 19.6 94 0.6 ENE 9 17 5 9 - - 8.8
18/04:30pm 20.9 23.2 19.9 94 0.6 NE 7 15 4 8 - - 8.2
18/04:00pm 20.1 19.5 18.9 93 0.8 ENE 20 30 11 16 - - 7.4
18/03:30pm 23.4 23.2 18.5 74 3.1 E 17 26 9 14 - - 0.0
18/03:00pm 23.0 20.6 18.3 75 3.0 E 28 43 15 23 - - 0.0
18/02:30pm 23.8 20.5 18.0 70 3.7 E 32 46 17 25 - - 0.0
18/02:00pm 24.5 21.4 17.5 65 4.4 ENE 30 41 16 22 - - 0.0
18/01:47pm 24.8 22.1 17.5 64 4.6 ENE 28 46 15 25 - - 0.0
18/01:30pm 25.1 22.5 17.8 64 4.6 ENE 28 41 15 22 - - 0.0
18/01:00pm 25.9 26.0 18.3 63 4.9 ENE 15 24 8 13 - - 0.0
18/12:30pm 24.8 25.2 17.3 63 4.7 E 11 24 6 13 - - 0.0
18/12:00pm 24.6 24.0 17.6 65 4.4 E 17 26 9 14 - - 0.0
18/11:30am 24.1 22.7 17.1 65 4.4 ENE 20 32 11 17 - - 0.0
18/11:00am 23.1 22.1 17.6 71 3.5 ENE 19 28 10 15 - - 0.0
18/10:30am 22.6 21.7 17.7 74 3.1 E 19 32 10 17 - - 0.0
18/10:17am 22.0 19.5 18.0 78 2.5 ESE 28 39 15 21 - - 0.0
18/10:00am 21.6 23.1 18.8 84 1.8 ENE 9 17 5 9 - - 0.0
18/09:30am 20.4 22.3 18.9 91 1.0 ESE 7 11 4 6 - - 0.0
18/09:00am 20.1 22.1 18.8 92 0.8 ENE 6 9 3 5 - - 13.6
18/08:30am 19.3 21.6 18.5 95 0.5 WNW 4 7 2 4 - - 13.6
18/08:00am 18.9 20.7 18.4 97 0.3 S 6 7 3 4 - - 13.6
18/07:30am 18.6 21.1 18.1 97 0.3 WSW 2 4 1 2 - - 13.6
18/07:00am 18.2 21.0 17.9 98 0.2 CALM 0 0 0 0 - - 13.6
18/06:30am 18.0 20.0 17.8 99 0.1 SW 4 6 2 3 - - 13.6
18/06:00am 18.0 19.6 17.8 99 0.1 WSW 6 7 3 4 - - 13.6
18/05:30am 18.1 19.7 17.9 99 0.1 W 6 7 3 4 - - 13.6
18/05:00am 18.1 19.7 17.9 99 0.1 NW 6 6 3 3 - - 13.6
18/04:30am 18.0 19.6 17.8 99 0.1 S 6 9 3 5 - - 13.6
18/04:00am 17.9 19.4 17.7 99 0.1 W 6 7 3 4 - - 13.6
18/03:30am 17.9 19.8 17.6 98 0.2 WNW 4 6 2 3 - - 13.6
18/03:00am 17.9 19.4 17.6 98 0.2 SSW 6 6 3 3 - - 13.6
18/02:30am 17.8 19.3 17.5 98 0.2 SSE 6 7 3 4 - - 13.6
18/02:00am 17.9 18.7 17.4 97 0.3 NW 9 11 5 6 - - 13.6
18/01:30am 17.5 18.3 17.2 98 0.2 E 9 17 5 9 - - 13.6
18/01:00am 17.7 20.3 17.4 98 0.2 CALM 0 2 0 1 - - 13.6
18/12:30am 17.6 19.2 17.0 96 0.4 N 4 7 2 4 - - 13.4
18/12:00am 17.5 18.8 17.2 98 0.2 NNE 6 9 3 5 - - 13.4
 
Date/Time
EST
Temp
°C
App
Temp
°C
Dew
Point
°C
Rel
Hum
%
Delta-T
°C
Wind Press
QNH
hPa
Press
MSL
hPa
Rain since
9am
mm
Dir  Spd
km/h
Gust
km/h
Spd
kts
Gust
kts
17/11:30pm 17.7 19.5 17.4 98 0.2 ENE 4 7 2 4 - - 13.4
17/11:00pm 17.7 18.5 17.4 98 0.2 NNE 9 13 5 7 - - 13.4
17/10:30pm 17.7 20.3 17.4 98 0.2 CALM 0 0 0 0 - - 13.4
17/10:00pm 17.7 18.8 17.2 97 0.3 NE 7 9 4 5 - - 13.2
17/09:30pm 17.7 17.7 17.2 97 0.3 NNE 13 22 7 12 - - 12.8
17/09:00pm 17.7 17.4 17.4 98 0.2 ESE 15 20 8 11 - - 11.0
17/08:30pm 18.0 19.3 17.5 97 0.3 NNE 7 13 4 7 - - 8.0
17/08:00pm 18.1 19.7 17.8 98 0.2 NNW 6 7 3 4 - - 6.0
17/07:30pm 18.1 19.7 17.8 98 0.2 ENE 6 7 3 4 - - 6.0
17/07:00pm 18.2 20.6 17.9 98 0.2 SSE 2 4 1 2 - - 5.8
17/06:30pm 18.1 19.6 17.6 97 0.3 W 6 9 3 5 - - 5.8
17/06:00pm 18.4 20.4 17.8 96 0.4 W 4 7 2 4 - - 5.8
17/05:30pm 18.4 19.5 17.2 93 0.7 NW 7 9 4 5 - - 5.6
17/05:00pm 18.7 19.6 16.7 88 1.2 ESE 7 15 4 8 - - 5.2
17/04:30pm 18.9 20.0 17.2 90 1.0 ESE 7 11 4 6 - - 4.8
17/04:00pm 19.2 19.9 17.9 92 0.8 SE 11 20 6 11 - - 4.4
17/03:30pm 19.6 21.1 18.8 95 0.5 S 9 13 5 7 - - 4.4
17/03:00pm 20.1 22.5 18.9 93 0.8 SE 4 11 2 6 - - 3.8
17/02:30pm 20.4 22.9 19.1 92 0.8 S 4 6 2 3 - - 3.4
17/02:00pm 20.3 23.3 19.3 94 0.6 S 2 6 1 3 - - 2.6
17/01:30pm 19.9 22.1 19.1 95 0.5 E 6 7 3 4 - - 1.8
17/01:00pm 20.2 21.5 18.5 90 1.1 ENE 9 15 5 8 - - 0.8
17/12:30pm 21.9 22.4 18.3 80 2.3 NE 13 20 7 11 - - 0.0
17/12:00pm 23.4 24.0 17.6 70 3.7 E 11 17 6 9 - - 0.0
17/11:30am 23.8 24.6 18.2 71 3.6 E 11 19 6 10 - - 0.0
17/11:00am 23.6 24.7 18.0 71 3.6 ENE 9 15 5 8 - - 0.0
17/10:30am 23.9 24.6 18.8 73 3.3 E 13 20 7 11 - - 0.0
17/10:00am 22.8 23.7 18.3 76 2.9 ENE 11 19 6 10 - - 0.0
17/09:30am 22.4 24.9 19.0 81 2.2 NE 4 7 2 4 - - 0.0
17/09:00am 21.6 23.4 18.4 82 2.0 ENE 6 11 3 6 - - 4.2
17/08:30am 20.6 22.5 18.5 88 1.3 SSW 6 9 3 5 - - 4.2
17/08:00am 19.3 21.0 18.0 92 0.8 SW 6 7 3 4 - - 4.2
17/07:30am 18.4 20.4 17.8 96 0.4 NW 4 6 2 3 - - 4.2
17/07:00am 17.7 19.2 17.5 99 0.1 ENE 6 7 3 4 - - 4.2
17/06:30am 17.3 18.6 17.1 99 0.1 NNE 6 7 3 4 - - 4.2
17/06:00am 17.2 18.5 17.0 99 0.1 NE 6 7 3 4 - - 4.2
17/05:30am 17.2 18.3 17.0 99 0.1 ESE 7 9 4 5 - - 4.2
17/05:00am 17.2 18.3 17.0 99 0.1 NE 7 9 4 5 - - 4.2
17/04:30am 17.3 19.4 17.1 99 0.1 WNW 2 4 1 2 - - 4.2
17/04:00am 17.4 18.7 17.2 99 0.1 NW 6 6 3 3 - - 4.2
17/03:30am 17.3 19.4 17.1 99 0.1 E 2 4 1 2 - - 4.2
17/03:00am 17.6 20.1 17.3 98 0.2 CALM 0 0 0 0 - - 4.2
17/02:30am 17.8 19.6 17.3 97 0.3 SW 4 6 2 3 - - 4.2
17/02:00am 17.7 19.9 17.4 98 0.2 S 2 4 1 2 - - 4.2
17/01:30am 17.8 19.3 17.5 98 0.2 SSW 6 9 3 5 - - 4.2
17/01:00am 17.9 18.7 17.4 97 0.3 N 9 11 5 6 - - 4.2
17/12:30am 17.9 18.8 17.6 98 0.2 NE 9 13 5 7 - - 4.0
17/12:00am 18.0 18.6 17.8 99 0.1 NE 11 17 6 9 - - 4.0
 
Date/Time
EST
Temp
°C
App
Temp
°C
Dew
Point
°C
Rel
Hum
%
Delta-T
°C
Wind Press
QNH
hPa
Press
MSL
hPa
Rain since
9am
mm
Dir  Spd
km/h
Gust
km/h
Spd
kts
Gust
kts
16/11:30pm 18.2 21.0 17.9 98 0.2 CALM 0 0 0 0 - - 4.0
16/11:00pm 18.5 21.0 18.2 98 0.2 ENE 2 2 1 1 - - 4.0
16/10:30pm 18.4 20.5 18.1 98 0.2 ENE 4 4 2 2 - - 4.0
16/10:00pm 18.5 20.3 18.2 98 0.2 E 6 6 3 3 - - 4.0
16/09:30pm 18.6 21.5 18.1 97 0.3 CALM 0 0 0 0 - - 4.0
16/09:00pm 18.7 21.2 18.2 97 0.3 ENE 2 6 1 3 - - 4.0
16/08:30pm 18.7 20.2 18.0 96 0.4 NE 7 11 4 6 - - 4.0
16/08:00pm 19.0 20.6 18.2 95 0.5 ESE 7 11 4 6 - - 4.0
16/07:30pm 19.0 20.8 18.2 95 0.5 ENE 6 7 3 4 - - 4.0

Other Formats:

Comma delimited format used in spreadsheet applications
http://www.bom.gov.au/fwo/IDQ60801/IDQ60801.94271.axf

JavaScript Object Notation format (JSON) in row-major order
http://www.bom.gov.au/fwo/IDQ60801/IDQ60801.94271.json